Airfield :
LOGIN :

Register | Disclaimer

   EN    FR    IT 

 










Legend :    VFR   Marginal VFR   IFR   Intensive IFR   Very Intensive IFR
Visi :
Ceiling :
>= 8 km
>= 3000ft
5 to 8 km
1000 to 3000 ft
1500m to 5 km
500 to 1000 ft
800 to 1500m
200 to 500 ft
< 800m
< 200 ft
Symbols :   Thunderstorms  Fog  Heavy snow  Heavy precipitations  Wind > 20 kt
SIGMETs :     Misc.  Thunderstorms  Icing  Turbulence  Mountain Waves  Volcanic Ashes







- Airport Elevation : 291 ft
- IATA code : ORY
- Download approach charts


LFPO - Paris-Orly

CURRENT METAR :
  • 220930Z 19008KT 1200 R02/1400U R26/1500U R08/1400U R24/1500U R06/1100U -SN BR BKN005 M01/M02 Q1008 TEMPO 1200 SN BKN004

EXPIRED METARs :
  • 220900Z 19008KT 1400 R02/1900N R26/1900N R08/1900D R24/1800U R06/P2000 -SN BR BKN007 M01/M02 Q1008 TEMPO 1200 SN BKN004
  • 220830Z 19009KT 3500 -SN BR BKN008 M01/M02 Q1008 TEMPO 1200 SN BKN004
  • 220800Z 19009KT 3500 -SN BR BKN008 M01/M02 Q1009 TEMPO 1200 SN BKN004
  • 220730Z 18008KT 150V210 3500 -SN BR BKN008 M01/M03 Q1009 TEMPO 1200 SN BKN004
  • 220700Z 19008KT 5000 BR BKN008 M02/M03 Q1010 TEMPO 1200 SN BKN004

TAF AMD TAF LFPO
Valid from the 22 at 09:00 until the 23 at 12:00 UTC


220941Z 2209/2312 20010KT 6000 BKN008
TEMPO 2209/2213 18010G20KT 0800 SN BKN004
PROB30
TEMPO 2215/2220 4000 -SHRASN
TEMPO 2220/2312 2000 SHSN BKN004 SCT020CB
BECMG 2310/2312 32010KT
ATIS : +33 1 49 75 65 80
No reported NOTAMs for that airfield.



MET'MAP, your aeronautical weather chart ! - Copyright ORBIFLY December 2007 - Disclaimer

ORBIFLY MET'MAP TEAM :

Programming & Development : Alexandra Zaïnal
Concept & Development : Baudouin d'Aumeries
Co-Development & Prog : Marc-Olivier Méhu
Technical & hardware support : Manuel Goepfert

Contact : metmap@orbifly.com




SOURCES & CREDITS :

   NOAA